createdAt,value
2023-05-12T00:01:25.657Z,100458.94
2023-05-12T00:04:27.900Z,100449.69
2023-05-12T00:07:30.277Z,100458.75
2023-05-12T00:10:35.881Z,100455.16
2023-05-12T00:13:38.030Z,100466.34
2023-05-12T00:16:45.652Z,100446.03
2023-05-12T00:19:51.343Z,100458.03
2023-05-12T00:22:55.793Z,100452.56
2023-05-12T00:26:00.286Z,100454.97
2023-05-12T00:29:02.700Z,100444.47
2023-05-12T00:32:08.330Z,100451.84
2023-05-12T00:35:12.866Z,100454.41
2023-05-12T00:38:15.365Z,100445.88
2023-05-12T00:41:17.592Z,100453.13
2023-05-12T00:44:19.883Z,100443.28
2023-05-12T00:47:22.451Z,100440.16
2023-05-12T00:50:27.595Z,100442.31
2023-05-12T00:53:45.139Z,100447.19
2023-05-12T00:56:53.763Z,100437.75
2023-05-12T00:59:57.038Z,100440.50
2023-05-12T01:02:59.827Z,100438.50
2023-05-12T01:06:11.435Z,100443.16
2023-05-12T01:09:15.156Z,100424.09
2023-05-12T01:12:18.016Z,100426.38
2023-05-12T01:15:20.449Z,100417.41
2023-05-12T01:18:28.138Z,100434.13
2023-05-12T01:21:30.420Z,100434.97
2023-05-12T01:24:42.939Z,100435.63
2023-05-12T01:27:46.356Z,100437.44
2023-05-12T01:30:49.269Z,100441.22
2023-05-12T01:33:54.369Z,100439.69
2023-05-12T01:36:59.284Z,100442.28
2023-05-12T01:40:02.484Z,100441.22
2023-05-12T01:43:06.960Z,100443.97
2023-05-12T01:46:11.619Z,100447.19
2023-05-12T01:49:15.955Z,100450.28
2023-05-12T01:52:26.143Z,100450.28
2023-05-12T01:55:28.566Z,100455.41
2023-05-12T01:58:37.587Z,100467.75
2023-05-12T02:01:42.568Z,100445.63
2023-05-12T02:04:48.348Z,100457.16
2023-05-12T02:07:56.081Z,100464.22
2023-05-12T02:11:08.826Z,100462.84
2023-05-12T02:14:14.278Z,100465.13
2023-05-12T02:17:17.362Z,100464.09
2023-05-12T02:20:21.262Z,100450.13
2023-05-12T02:23:23.969Z,100460.88
2023-05-12T02:26:28.526Z,100459.66
2023-05-12T02:29:30.835Z,100468.00
2023-05-12T02:32:33.837Z,100473.78
2023-05-12T02:35:38.684Z,100458.06
2023-05-12T02:38:43.778Z,100452.09
2023-05-12T02:41:46.133Z,100461.50
2023-05-12T02:44:48.470Z,100478.34
2023-05-12T02:47:53.488Z,100469.69
2023-05-12T02:50:58.145Z,100469.22
2023-05-12T02:54:00.445Z,100478.94
2023-05-12T02:57:06.601Z,100469.38
2023-05-12T03:00:09.511Z,100479.91
2023-05-12T03:03:14.313Z,100469.34
2023-05-12T03:06:16.783Z,100460.97
2023-05-12T03:09:19.143Z,100466.19
2023-05-12T03:12:24.163Z,100475.44
2023-05-12T03:15:28.731Z,100471.03
2023-05-12T03:18:33.797Z,100465.34
2023-05-12T03:21:38.507Z,100473.16
2023-05-12T03:24:43.924Z,100463.63
2023-05-12T03:27:49.874Z,100471.22
2023-05-12T03:30:55.562Z,100484.25
2023-05-12T03:33:58.940Z,100478.72
2023-05-12T03:37:03.949Z,100484.69
2023-05-12T03:40:12.129Z,100476.50
2023-05-12T03:43:17.138Z,100486.69
2023-05-12T03:46:22.782Z,100481.97
2023-05-12T03:49:25.221Z,100476.66
2023-05-12T03:52:29.939Z,100471.81
2023-05-12T03:55:34.431Z,100484.09
2023-05-12T03:58:38.919Z,100481.28
2023-05-12T04:01:41.353Z,100478.72
2023-05-12T04:04:45.905Z,100497.59
2023-05-12T04:07:53.412Z,100498.22
2023-05-12T04:10:58.161Z,100499.09
2023-05-12T04:14:02.713Z,100512.53
2023-05-12T04:17:05.251Z,100504.63
2023-05-12T04:20:10.803Z,100503.78
2023-05-12T04:23:17.778Z,100502.34
2023-05-12T04:26:20.783Z,100507.69
2023-05-12T04:29:25.586Z,100508.91
2023-05-12T04:32:30.545Z,100505.78
2023-05-12T04:35:36.246Z,100512.81
2023-05-12T04:38:40.658Z,100517.59
2023-05-12T04:41:43.830Z,100508.19
2023-05-12T04:44:46.784Z,100512.38
2023-05-12T04:47:51.917Z,100505.47
2023-05-12T04:50:54.973Z,100503.56
2023-05-12T04:53:57.194Z,100504.56
2023-05-12T04:57:01.893Z,100500.00
2023-05-12T05:00:07.172Z,100505.78
2023-05-12T05:03:12.138Z,100509.41
2023-05-12T05:06:16.907Z,100505.03
2023-05-12T05:09:19.848Z,100508.97
2023-05-12T05:12:22.232Z,100516.53
2023-05-12T05:15:27.305Z,100517.31
2023-05-12T05:18:32.454Z,100508.97
2023-05-12T05:21:35.021Z,100515.63
2023-05-12T05:24:37.420Z,100507.31
2023-05-12T05:27:39.737Z,100509.47
2023-05-12T05:30:42.467Z,100514.72
2023-05-12T05:33:45.040Z,100501.84
2023-05-12T05:36:50.850Z,100518.22
2023-05-12T05:39:55.633Z,100515.94
2023-05-12T05:42:58.124Z,100527.47
2023-05-12T05:46:05.574Z,100514.19
2023-05-12T05:49:10.661Z,100524.41
2023-05-12T05:52:13.045Z,100528.56
2023-05-12T05:55:18.259Z,100533.53
2023-05-12T05:58:25.352Z,100531.72
2023-05-12T06:01:27.930Z,100536.09
2023-05-12T06:04:30.401Z,100535.94
2023-05-12T06:07:33.886Z,100539.91
2023-05-12T06:10:41.006Z,100534.88
2023-05-12T06:13:45.654Z,100537.31
2023-05-12T06:16:48.193Z,100532.47
2023-05-12T06:19:52.750Z,100541.84
2023-05-12T06:23:00.157Z,100533.38
2023-05-12T06:26:02.621Z,100543.38
2023-05-12T06:29:07.706Z,100539.72
2023-05-12T06:32:10.113Z,100542.22
2023-05-12T06:35:13.003Z,100535.59
2023-05-12T06:38:17.591Z,100540.38
2023-05-12T06:41:25.341Z,100545.44
2023-05-12T06:44:32.332Z,100539.53
2023-05-12T06:47:37.429Z,100539.16
2023-05-12T06:50:42.378Z,100533.06
2023-05-12T06:53:47.155Z,100534.13
2023-05-12T06:56:49.571Z,100522.66
2023-05-12T06:59:52.379Z,100528.31
2023-05-12T07:02:54.752Z,100544.72
2023-05-12T07:05:59.279Z,100545.09
2023-05-12T07:09:01.644Z,100535.78
2023-05-12T07:12:04.813Z,100540.31
2023-05-12T07:15:08.464Z,100538.78
2023-05-12T07:18:13.827Z,100538.75
2023-05-12T07:21:16.132Z,100527.31
2023-05-12T07:24:18.393Z,100540.53
2023-05-12T07:27:23.118Z,100536.97
2023-05-12T07:30:30.761Z,100539.31
2023-05-12T07:33:33.375Z,100529.84
2023-05-12T07:36:41.245Z,100515.06
2023-05-12T07:39:45.878Z,100533.66
2023-05-12T07:42:48.248Z,100529.38
2023-05-12T07:45:52.921Z,100533.47
2023-05-12T07:49:02.889Z,100524.38
2023-05-12T07:52:09.648Z,100536.53
2023-05-12T07:55:14.927Z,100527.88
2023-05-12T07:58:17.204Z,100534.41
2023-05-12T08:01:21.796Z,100541.22
2023-05-12T08:04:26.539Z,100532.53
2023-05-12T08:07:28.893Z,100529.31
2023-05-12T08:10:32.652Z,100538.28
2023-05-12T08:13:37.165Z,100529.00
2023-05-12T08:16:39.837Z,100558.34
2023-05-12T08:19:44.585Z,100546.88
2023-05-12T08:22:47.929Z,100530.09
2023-05-12T08:25:50.314Z,100552.66
2023-05-12T08:29:02.554Z,100539.00
2023-05-12T08:32:07.630Z,100545.44
2023-05-12T08:35:09.960Z,100554.72
2023-05-12T08:38:12.294Z,100545.19
2023-05-12T08:41:23.353Z,100551.84
2023-05-12T08:44:28.296Z,100561.72
2023-05-12T08:47:33.680Z,100573.16
2023-05-12T08:50:38.243Z,100564.72
2023-05-12T08:53:43.223Z,100558.41
2023-05-12T08:59:59.401Z,100560.19
2023-05-12T09:03:05.533Z,100567.50
2023-05-12T09:06:13.390Z,100560.09
2023-05-12T09:09:20.054Z,100577.31
2023-05-12T09:12:23.243Z,100573.28
2023-05-12T09:15:36.246Z,100576.16
2023-05-12T09:18:58.852Z,100589.44
2023-05-12T09:22:01.390Z,100583.00
2023-05-12T09:25:26.222Z,100595.41
2023-05-12T09:28:36.876Z,100612.19
2023-05-12T09:31:39.182Z,100609.38
2023-05-12T09:34:43.570Z,100610.59
2023-05-12T09:37:46.745Z,100601.22
2023-05-12T09:40:51.912Z,100620.72
2023-05-12T09:43:54.352Z,100617.22
2023-05-12T09:47:08.376Z,100610.56
2023-05-12T09:50:10.850Z,100617.31
2023-05-12T09:53:13.186Z,100615.63
2023-05-12T09:56:21.325Z,100625.16
2023-05-12T09:59:36.339Z,100622.53
2023-05-12T10:02:43.105Z,100636.75
2023-05-12T10:05:55.828Z,100635.53
2023-05-12T10:09:03.538Z,100628.41
2023-05-12T10:12:06.499Z,100630.38
2023-05-12T10:15:13.425Z,100626.09
2023-05-12T10:18:19.492Z,100630.59
2023-05-12T10:21:22.112Z,100635.31
2023-05-12T10:24:28.395Z,100634.91
2023-05-12T10:27:35.824Z,100621.00
2023-05-12T10:30:43.102Z,100607.94
2023-05-12T10:33:59.392Z,100608.25
2023-05-12T10:37:08.432Z,100631.25
2023-05-12T10:40:26.953Z,100617.59
2023-05-12T10:43:38.931Z,100626.91
2023-05-12T10:46:42.286Z,100628.31
2023-05-12T10:49:47.853Z,100630.47
2023-05-12T10:52:55.151Z,100633.50
2023-05-12T10:56:05.582Z,100633.84
2023-05-12T10:59:09.532Z,100627.13
2023-05-12T11:02:21.560Z,100633.59
2023-05-12T11:05:34.667Z,100630.72
2023-05-12T11:08:37.922Z,100630.16
2023-05-12T11:11:43.544Z,100632.66
2023-05-12T11:14:47.182Z,100618.66
2023-05-12T11:17:49.454Z,100622.69
2023-05-12T11:20:53.945Z,100618.00
2023-05-12T11:23:59.193Z,100620.22
2023-05-12T11:27:04.977Z,100621.78
2023-05-12T11:30:11.226Z,100620.47
2023-05-12T11:33:19.824Z,100620.53
2023-05-12T11:36:22.142Z,100615.44
2023-05-12T11:39:32.476Z,100622.91
2023-05-12T11:42:34.784Z,100628.44
2023-05-12T11:45:37.272Z,100624.44
2023-05-12T11:48:41.961Z,100626.69
2023-05-12T11:51:44.311Z,100628.66
2023-05-12T11:55:04.719Z,100619.19
2023-05-12T11:58:07.010Z,100625.41
2023-05-12T12:01:13.546Z,100620.47
2023-05-12T12:04:18.277Z,100629.09
2023-05-12T12:07:34.089Z,100629.56
2023-05-12T12:10:38.627Z,100613.31
2023-05-12T12:13:49.197Z,100630.16
2023-05-12T12:16:51.534Z,100631.56
2023-05-12T12:19:53.789Z,100624.88
2023-05-12T12:22:58.310Z,100634.34
2023-05-12T12:26:03.559Z,100638.13
2023-05-12T12:29:05.841Z,100635.19
2023-05-12T12:32:12.610Z,100642.59
2023-05-12T12:35:22.810Z,100636.69
2023-05-12T12:38:27.439Z,100637.75
2023-05-12T12:41:32.490Z,100633.00
2023-05-12T12:44:34.780Z,100624.69
2023-05-12T12:47:39.907Z,100624.09
2023-05-12T12:50:42.394Z,100637.75
2023-05-12T12:53:45.741Z,100640.91
2023-05-12T12:56:48.184Z,100632.31
2023-05-12T12:59:50.495Z,100633.13
2023-05-12T13:02:55.916Z,100634.22
2023-05-12T13:05:58.368Z,100631.81
2023-05-12T13:09:03.987Z,100627.06
2023-05-12T13:12:06.455Z,100629.25
2023-05-12T13:15:11.584Z,100641.06
2023-05-12T13:18:14.054Z,100647.09
2023-05-12T13:21:16.374Z,100635.28
2023-05-12T13:24:18.636Z,100642.00
2023-05-12T13:27:23.357Z,100603.28
2023-05-12T13:30:25.840Z,100632.00
2023-05-12T13:33:30.837Z,100635.63
2023-05-12T13:36:38.561Z,100632.53
2023-05-12T13:39:40.953Z,100624.53
2023-05-12T13:42:43.268Z,100639.78
2023-05-12T13:45:47.111Z,100636.09
2023-05-12T13:48:54.762Z,100632.72
2023-05-12T13:51:57.081Z,100632.66
2023-05-12T13:54:59.444Z,100622.56
2023-05-12T13:58:04.551Z,100634.72
2023-05-12T14:01:09.749Z,100637.28
2023-05-12T14:04:12.792Z,100628.50
2023-05-12T14:07:15.374Z,100626.38
2023-05-12T14:10:22.371Z,100629.78
2023-05-12T14:13:26.042Z,100639.44
2023-05-12T14:16:31.383Z,100640.94
2023-05-12T14:19:36.348Z,100634.38
2023-05-12T14:22:39.019Z,100640.72
2023-05-12T14:25:43.570Z,100666.34
2023-05-12T14:28:46.122Z,100667.88
2023-05-12T14:31:53.485Z,100671.50
2023-05-12T14:34:55.713Z,100673.50
2023-05-12T14:37:58.269Z,100672.72
2023-05-12T14:41:00.504Z,100677.19
2023-05-12T14:44:05.170Z,100682.59
2023-05-12T14:47:10.542Z,100684.63
2023-05-12T14:50:13.734Z,100663.00
2023-05-12T14:53:18.249Z,100683.97
2023-05-12T14:56:22.722Z,100698.88
2023-05-12T14:59:33.397Z,100682.41
2023-05-12T15:02:35.862Z,100688.75
2023-05-12T15:05:56.881Z,100687.69
2023-05-12T15:09:02.689Z,100682.31
2023-05-12T15:12:05.208Z,100694.91
2023-05-12T15:15:08.908Z,100661.56
2023-05-12T15:18:11.375Z,100704.75
2023-05-12T15:21:13.647Z,100701.09
2023-05-12T15:24:16.197Z,100700.41
2023-05-12T15:27:18.472Z,100699.09
2023-05-12T15:30:20.944Z,100690.53
2023-05-12T15:33:26.129Z,100710.16
2023-05-12T15:36:28.547Z,100709.19
2023-05-12T15:39:30.805Z,100696.22
2023-05-12T15:42:34.131Z,100703.13
2023-05-12T15:45:37.384Z,100704.03
2023-05-12T15:48:39.874Z,100704.78
2023-05-12T15:51:42.130Z,100695.84
2023-05-12T15:54:44.388Z,100689.16
2023-05-12T15:57:49.503Z,100693.13
2023-05-12T16:00:54.080Z,100700.75
2023-05-12T16:03:56.525Z,100701.63
2023-05-12T16:06:59.057Z,100710.47
2023-05-12T16:10:08.339Z,100705.69
2023-05-12T16:13:13.756Z,100702.97
2023-05-12T16:16:21.451Z,100707.75
2023-05-12T16:19:26.110Z,100708.47
2023-05-12T16:22:28.337Z,100705.69
2023-05-12T16:25:30.686Z,100703.63
2023-05-12T16:28:34.676Z,100700.34
2023-05-12T16:31:42.309Z,100706.84
2023-05-12T16:34:44.759Z,100705.00
2023-05-12T16:37:49.586Z,100706.66
2023-05-12T16:40:56.621Z,100718.00
2023-05-12T16:44:03.675Z,100709.81
2023-05-12T16:47:06.083Z,100720.50
2023-05-12T16:50:11.766Z,100714.84
2023-05-12T16:53:18.952Z,100717.09
2023-05-12T16:56:23.348Z,100715.91
2023-05-12T16:59:25.633Z,100723.00
2023-05-12T17:02:31.046Z,100724.28
2023-05-12T17:05:37.046Z,100718.97
2023-05-12T17:08:39.397Z,100714.13
2023-05-12T17:11:42.704Z,100710.78
2023-05-12T17:14:59.420Z,100728.00
2023-05-12T17:18:06.288Z,100726.72
2023-05-12T17:21:11.599Z,100723.06
2023-05-12T17:24:17.200Z,100744.50
2023-05-12T17:27:21.646Z,100743.22
2023-05-12T17:30:24.053Z,100745.72
2023-05-12T17:33:26.637Z,100748.69
2023-05-12T17:36:32.985Z,100749.06
2023-05-12T17:39:35.442Z,100744.94
2023-05-12T17:42:42.376Z,100749.34
2023-05-12T17:45:47.377Z,100752.06
2023-05-12T17:48:49.693Z,100753.31
2023-05-12T17:51:57.861Z,100756.91
2023-05-12T17:55:02.345Z,100763.81
2023-05-12T17:58:04.794Z,100766.34
2023-05-12T18:01:09.467Z,100760.09
2023-05-12T18:04:11.905Z,100756.69
2023-05-12T18:07:14.514Z,100768.00
2023-05-12T18:10:19.248Z,100753.41
2023-05-12T18:13:26.252Z,100756.56
2023-05-12T18:16:31.853Z,100753.03
2023-05-12T18:19:34.043Z,100754.72
2023-05-12T18:22:39.298Z,100764.31
2023-05-12T18:25:42.888Z,100763.09
2023-05-12T18:28:48.126Z,100759.56
2023-05-12T18:31:50.417Z,100758.50
2023-05-12T18:34:57.632Z,100752.41
2023-05-12T18:37:59.889Z,100766.47
2023-05-12T18:41:07.156Z,100768.97
2023-05-12T18:44:12.454Z,100772.75
2023-05-12T18:47:17.139Z,100769.19
2023-05-12T18:50:19.476Z,100770.44
2023-05-12T18:53:21.982Z,100775.06
2023-05-12T18:56:24.346Z,100780.50
2023-05-12T18:59:26.885Z,100777.38
2023-05-12T19:02:31.433Z,100784.91
2023-05-12T19:05:37.014Z,100775.25
2023-05-12T19:08:41.722Z,100787.63
2023-05-12T19:11:44.436Z,100793.72
2023-05-12T19:14:48.187Z,100787.63
2023-05-12T19:17:50.703Z,100795.41
2023-05-12T19:20:53.302Z,100803.16
2023-05-12T19:23:56.279Z,100801.47
2023-05-12T19:26:59.284Z,100800.84
2023-05-12T19:30:05.329Z,100804.81
2023-05-12T19:33:07.809Z,100804.16
2023-05-12T19:36:12.720Z,100814.63
2023-05-12T19:39:17.194Z,100803.56
2023-05-12T19:42:19.781Z,100811.28
2023-05-12T19:45:22.396Z,100800.59
2023-05-12T19:48:24.981Z,100798.06
2023-05-12T19:51:28.399Z,100805.84
2023-05-12T19:54:30.804Z,100805.41
2023-05-12T19:57:33.073Z,100800.78
2023-05-12T20:00:36.983Z,100814.63
2023-05-12T20:03:43.036Z,100811.50
2023-05-12T20:06:48.134Z,100809.38
2023-05-12T20:09:53.490Z,100810.00
2023-05-12T20:12:58.655Z,100810.19
2023-05-12T20:16:01.285Z,100806.22
2023-05-12T20:19:03.570Z,100777.34
2023-05-12T20:22:06.381Z,100810.81
2023-05-12T20:25:15.989Z,100813.34
2023-05-12T20:28:18.224Z,100807.03
2023-05-12T20:31:20.598Z,100809.19
2023-05-12T20:34:27.471Z,100807.09
2023-05-12T20:37:32.228Z,100805.81
2023-05-12T20:40:34.565Z,100785.69
2023-05-12T20:43:41.377Z,100808.34
2023-05-12T20:46:46.768Z,100797.88
2023-05-12T20:49:57.169Z,100806.03
2023-05-12T20:52:59.504Z,100804.72
2023-05-12T20:56:08.344Z,100798.06
2023-05-12T20:59:10.985Z,100811.69
2023-05-12T21:02:13.338Z,100811.22
2023-05-12T21:05:21.763Z,100820.66
2023-05-12T21:08:24.393Z,100807.03
2023-05-12T21:11:29.423Z,100817.94
2023-05-12T21:14:47.643Z,100813.78
2023-05-12T21:17:57.933Z,100809.56
2023-05-12T21:21:02.877Z,100816.25
2023-05-12T21:24:05.485Z,100818.34
2023-05-12T21:27:08.406Z,100818.78
2023-05-12T21:30:11.050Z,100820.44
2023-05-12T21:33:18.530Z,100816.03
2023-05-12T21:36:20.960Z,100817.94
2023-05-12T21:39:28.367Z,100810.81
2023-05-12T21:42:30.911Z,100822.13
2023-05-12T21:45:33.255Z,100803.69
2023-05-12T21:48:35.654Z,100810.59
2023-05-12T21:51:37.980Z,100827.53
2023-05-12T21:54:40.465Z,100813.31
2023-05-12T21:57:42.914Z,100809.75
2023-05-12T22:00:45.230Z,100812.88
2023-05-12T22:03:47.651Z,100809.94
2023-05-12T22:06:50.689Z,100805.72
2023-05-12T22:09:52.965Z,100808.69
2023-05-12T22:12:57.450Z,100813.69
2023-05-12T22:16:00.155Z,100812.47
2023-05-12T22:19:04.801Z,100807.81
2023-05-12T22:22:07.141Z,100812.47
2023-05-12T22:25:09.677Z,100811.63
2023-05-12T22:28:11.967Z,100808.28
2023-05-12T22:31:16.463Z,100806.56
2023-05-12T22:34:24.252Z,100811.16
2023-05-12T22:37:26.734Z,100811.16
2023-05-12T22:40:30.887Z,100818.91
2023-05-12T22:43:35.598Z,100804.88
2023-05-12T22:46:38.042Z,100811.56
2023-05-12T22:49:42.538Z,100810.75
2023-05-12T22:52:50.075Z,100794.44
2023-05-12T22:55:52.407Z,100805.34
2023-05-12T22:58:57.104Z,100795.06
2023-05-12T23:01:59.332Z,100802.97
2023-05-12T23:05:05.014Z,100803.88
2023-05-12T23:08:07.302Z,100801.16
2023-05-12T23:11:12.894Z,100799.22
2023-05-12T23:14:17.485Z,100794.00
2023-05-12T23:17:20.797Z,100796.97
2023-05-12T23:20:23.419Z,100790.25
2023-05-12T23:23:26.160Z,100792.34
2023-05-12T23:26:28.394Z,100771.38
2023-05-12T23:29:34.546Z,100781.84
2023-05-12T23:32:37.047Z,100775.56
2023-05-12T23:35:39.562Z,100779.41
2023-05-12T23:38:42.032Z,100785.47
2023-05-12T23:41:45.603Z,100787.38
2023-05-12T23:44:47.900Z,100784.63
2023-05-12T23:47:52.850Z,100777.09
2023-05-12T23:50:55.272Z,100781.13
2023-05-12T23:53:57.478Z,100783.00
2023-05-12T23:56:59.815Z,100781.13
